Terminal Aerodrome Forecast
Issued by NWS

Home | Current Version | Previous Version | Text Only | Print | Product List | Glossary On
Versions: 1 2 3 4 5 6 7 8 9 10 11 12 13 14 15 16 17 18 19 20 21 22 23 24 25 26 27 28 29 30 31 32 33 34 35 36 37 38 39 40 41 42 43 44
000
FTAK31 PANC 012338
TAFADQ
TAF
PADQ 012338Z 0200/0224 05007KT P6SM FEW005 SCT010 OVC200
      TEMPO 0200/0204 BKN010
     FM020400 08015KT P6SM -RA BKN010 OVC025
     FM021000 07016G22KT 3SM -RA BR OVC008=

USA.gov is the U.S. government's official web portal to all federal, state and local government web resources and services.